My webcam  My webcam


Radar lluvias  rain snow radar


Visita nuestra red de sitios de meteo:

Template documentation
and downloads

And another site



Informes METAR proximidad


Warning: A non-numeric value encountered in /var/www/clients/client12/web25/web/weather28/metar/metarDisplay.php on line 167

Warning: A non-numeric value encountered in /var/www/clients/client12/web25/web/weather28/metar/metarDisplay.php on line 167

Warning: A non-numeric value encountered in /var/www/clients/client12/web25/web/weather28/metar/metarDisplay.php on line 167
   
LEXJ - Santander, Spain
Distancia hasta la estación: ESE 6 km
Actualización: 08-02-2023 01:00
Despejado  
Despejado  
   Viento: E 9.3 km/h
Viento: E 9.3 km/h
Temperatura: 6°C
Térmica: 4°C
Punto de rocío: 3°C
Humedad: 81%
Baromètro: 1028 hPa
Visibilidad: More than 10 km
detalles de la nube: Despejado
LEXJ 080000Z AUTO 08005KT 010V120 CAVOK 06/03 Q1028
LEBB - Bilbao/Sondica, Spain
Distancia hasta la estación: ESE 80 km
Actualización: 08-02-2023 01:00
Parcialmente nublado  
Parcialmente nublado  
   Viento: NNE 3.7 km/h
Viento: NNE 3.7 km/h
Temperatura: 6°C
Punto de rocío: 4°C
Humedad: 87%
Baromètro: 1028 hPa
Nublado: Parcialmente nublado
Visibilidad: More than 10 km
detalles de la nube: Parcialmente nublado 6000 ft
LEBB 080000Z AUTO 03002KT 9999 BKN060 06/04 Q1028
LEAS - Asturias/Aviles, Spain
Distancia hasta la estación: W 172 km
Actualización: 08-02-2023 01:00
Despejado  
Despejado  
   Viento: SE 13 km/h
Viento: SE 13 km/h
Temperatura: 4°C
Térmica: 1°C
Punto de rocío: 1°C
Humedad: 81%
Baromètro: 1025 hPa
Visibilidad: More than 10 km
detalles de la nube: Despejado
LEAS 080000Z AUTO 13007KT 090V160 CAVOK 04/01 Q1025
LESO - San Sebastian/Fu, Spain
Distancia hasta la estación: E 169 km
Actualización: 08-02-2023 01:00
Despejado  
Despejado  
   Viento: SE 7.4 km/h
Viento: SE 7.4 km/h
Temperatura: 5°C
Térmica: 3°C
Punto de rocío: 3°C
Humedad: 87%
Baromètro: 1029 hPa
Visibilidad: More than 10 km
detalles de la nube: Despejado
LESO 080000Z AUTO 13004KT 090V180 CAVOK 05/03 Q1029
LEVT - Vitoria, Spain
Distancia hasta la estación: ESE 114 km
Actualización: 08-02-2023 01:00
Parcialmente nublado  
Parcialmente nublado  
   Viento: calma
Viento: calma
Temperatura: 1°C
Punto de rocío: 1°C
Humedad: 100%
Baromètro: 1026 hPa
Nublado: Parcialmente nublado
Visibilidad: 6 km
detalles de la nube: Parcialmente Nublado 1600 ft,
Parcialmente nublado 2200 ft
LEVT 080000Z 00000KT 6000 SCT016 BKN022 01/01 Q1026
LEZG - Zaragoza (mil/Ci, Spain
Distancia hasta la estación: SE 307 km
Actualización: 08-02-2023 01:00
lluvia, Llovizna, Parcialmente nublado  
lluvia, Llovizna, Parcialmente nublado  
   Viento: West 5.6 km/h
Viento: West 5.6 km/h
Temperatura: 4°C
Térmica: 3°C
Punto de rocío: 4°C
Humedad: 100%
Baromètro: 1027 hPa
Nublado: Parcialmente nublado
Visibilidad: 6 km
detalles de la nube: Nubes dispersas 500 ft,
Parcialmente nublado 1500 ft
LEZG 080000Z 26003KT 6000 -RADZ FEW005 BKN015 04/04 Q1027
LEMD - Madrid ,Spain
Distancia hasta la estación: S 334 km
Actualización: 08-02-2023 01:00
Parcialmente nublado  
Parcialmente nublado  
   Viento: N 7.4 km/h
Viento: N 7.4 km/h
Temperatura: 3°C
Térmica: 1°C
Punto de rocío: -1°C
Humedad: 75%
Baromètro: 1022 hPa
Nublado: Parcialmente nublado
Visibilidad: More than 10 km
detalles de la nube: Parcialmente Nublado 3000 ft,
Parcialmente nublado 4500 ft
LEMD 080000Z 36004KT 300V070 9999 SCT030 BKN045 03/M01 Q1022 NOSIG
  

Guión original por  Saratoga-weather.org Adaptado para la plantilla por  Weerstation Leuven

Obra sujeta a una Licencia de Creative Commons

RED DE ESTACIONES DE METEOCLIMATIC

Sello de calidad

ESCTB3900000039011A